Time;durP1;ratioP1;P1;durP2;ratioP2;P2;SDS_P1;SDS_P2;PMS_P1;PMS_P2;Temp;Humidity;BMP_temperature;BMP_pressure;BME280_temperature;BME280_humidity;BME280_pressure;Samples;Min_cycle;Max_cycle;Signal;HPM_P1;HPM_P2
2023/12/09 00:01:54;;;;;;;;;;;;;;;11.15;92.50;100131.72;7327210;19;20011;-65
2023/12/09 00:04:21;;;;;;;;;;;;;;;11.12;92.59;100120.72;7327272;19;19933;-66
2023/12/09 00:06:48;;;;;;;;;;;;;;;11.17;92.55;100117.56;7325396;19;20206;-65
2023/12/09 00:09:18;;;;;;;;;;;;;;;11.17;92.89;100112.31;7305161;19;19918;-64
2023/12/09 00:11:45;;;;;;;;;;;;;;;11.16;92.97;100116.75;7315212;19;20262;-66
2023/12/09 00:14:11;;;;;;;;;;;;;;;11.22;92.51;100108.16;7317908;19;19911;-64
2023/12/09 00:16:39;;;;;;;;;;;;;;;11.20;91.89;100104.03;7325004;19;19944;-65
2023/12/09 00:19:11;;;;;;;;;;;;;;;11.20;92.55;100096.97;7317550;19;22208;-64
2023/12/09 00:21:38;;;;;;;;;;;;;;;11.25;92.98;100112.22;7317443;19;19922;-64
2023/12/09 00:24:04;;;;;;;;;;;;;;;11.18;92.19;100103.38;7322665;19;20395;-65
2023/12/09 00:26:31;;;;;;;;;;;;;;;11.26;91.82;100105.97;7325087;19;19945;-64
2023/12/09 00:28:58;;;;;;;;;;;;;;;11.30;91.68;100104.63;7313942;19;19953;-65
2023/12/09 00:31:25;;;;;;;;;;;;;;;11.33;91.54;100089.28;7320408;19;19914;-64
2023/12/09 00:33:52;;;;;;;;;;;;;;;11.35;91.55;100081.22;7317253;19;20290;-65
2023/12/09 00:36:19;;;;;;;;;;;;;;;11.35;91.84;100068.88;7311882;19;20679;-67
2023/12/09 00:38:46;;;;;;;;;;;;;;;11.39;91.90;100069.31;7312620;19;19914;-66
2023/12/09 00:41:13;;;;;;;;;;;;;;;11.40;91.70;100071.78;7305708;19;21653;-65
2023/12/09 00:43:40;;;;;;;;;;;;;;;11.41;91.67;100067.34;7320581;19;19987;-65
2023/12/09 00:46:07;;;;;;;;;;;;;;;11.38;91.44;100072.94;7314392;19;19923;-65
2023/12/09 00:48:34;;;;;;;;;;;;;;;11.35;91.89;100071.50;7312745;19;19918;-65
2023/12/09 00:51:01;;;;;;;;;;;;;;;11.38;92.59;100070.31;7315333;19;19923;-65
2023/12/09 00:53:28;;;;;;;;;;;;;;;11.37;92.49;100059.00;7310068;19;20009;-66
2023/12/09 00:55:55;;;;;;;;;;;;;;;11.35;92.69;100066.25;7315347;19;20364;-65
2023/12/09 00:58:22;;;;;;;;;;;;;;;11.31;92.73;100064.97;7317020;19;19919;-65
2023/12/09 01:00:49;;;;;;;;;;;;;;;11.31;92.68;100064.97;7319310;19;20278;-65
2023/12/09 01:03:18;;;;;;;;;;;;;;;11.25;92.42;100065.66;7320104;19;20696;-66
2023/12/09 01:05:45;;;;;;;;;;;;;;;11.22;92.94;100062.56;7317507;19;20569;-65
2023/12/09 01:08:12;;;;;;;;;;;;;;;11.19;93.33;100055.81;7303228;19;19918;-65
2023/12/09 01:10:39;;;;;;;;;;;;;;;11.18;93.62;100063.88;7306150;19;19955;-66
2023/12/09 01:13:06;;;;;;;;;;;;;;;11.14;93.63;100061.63;7307052;19;19927;-66
2023/12/09 01:15:33;;;;;;;;;;;;;;;11.11;94.29;100058.53;7308330;19;19922;-65
2023/12/09 01:18:00;;;;;;;;;;;;;;;11.10;94.38;100062.16;7318643;19;20282;-66
2023/12/09 01:20:27;;;;;;;;;;;;;;;11.07;94.33;100051.97;7312789;19;20454;-65
2023/12/09 01:22:54;;;;;;;;;;;;;;;11.06;94.68;100045.88;7323845;19;20296;-65
2023/12/09 01:25:21;;;;;;;;;;;;;;;11.03;94.80;100040.13;7319296;19;19914;-66
2023/12/09 01:27:48;;;;;;;;;;;;;;;11.00;94.74;100037.88;7317236;19;19926;-64
2023/12/09 01:30:15;;;;;;;;;;;;;;;10.98;94.77;100042.47;7306264;19;20458;-65
2023/12/09 01:32:41;;;;;;;;;;;;;;;10.93;94.81;100031.66;7324712;19;20599;-64
2023/12/09 01:35:10;;;;;;;;;;;;;;;10.90;95.30;100024.94;7321019;19;20347;-65
2023/12/09 01:37:37;;;;;;;;;;;;;;;10.92;95.40;100028.19;7321653;19;19987;-66
2023/12/09 01:40:04;;;;;;;;;;;;;;;10.95;95.83;100009.44;7319343;19;19918;-66
2023/12/09 01:42:31;;;;;;;;;;;;;;;10.99;95.69;100010.72;7330439;19;19926;-65
2023/12/09 01:44:58;;;;;;;;;;;;;;;11.00;95.62;100008.91;7313527;19;20751;-63
2023/12/09 01:47:25;;;;;;;;;;;;;;;10.94;95.34;100005.16;7316597;19;19910;-66
2023/12/09 01:49:52;;;;;;;;;;;;;;;10.93;94.93;100005.34;7301496;19;19922;-66
2023/12/09 01:52:19;;;;;;;;;;;;;;;10.94;95.47;99996.44;7311804;19;20533;-64
2023/12/09 01:54:46;;;;;;;;;;;;;;;10.98;96.09;99990.66;7323098;19;19919;-66
2023/12/09 01:57:13;;;;;;;;;;;;;;;10.99;95.87;99997.56;7323976;19;19937;-66
2023/12/09 01:59:40;;;;;;;;;;;;;;;10.96;95.35;99999.75;7319050;19;20364;-65
2023/12/09 02:02:07;;;;;;;;;;;;;;;10.95;94.80;99996.28;7311315;19;20516;-64
2023/12/09 02:04:34;;;;;;;;;;;;;;;10.99;95.40;99986.22;7317315;19;19911;-65
2023/12/09 02:07:01;;;;;;;;;;;;;;;11.03;95.27;99982.22;7314562;19;19911;-65
2023/12/09 02:09:28;;;;;;;;;;;;;;;11.03;94.89;99987.50;7312847;19;19918;-67
2023/12/09 02:12:03;;;;;;;;;;;;;;;11.03;95.05;99983.03;7315640;19;19993;-65
2023/12/09 02:14:38;;;;;;;;;;;;;;;11.07;95.02;99979.06;7305878;19;19923;-67
2023/12/09 02:17:14;;;;;;;;;;;;;;;11.07;94.92;99971.16;7312579;19;19915;-65
2023/12/09 02:19:42;;;;;;;;;;;;;;;11.05;94.85;99973.16;7323872;19;19926;-64
2023/12/09 02:22:09;;;;;;;;;;;;;;;11.06;94.88;99960.84;7318975;19;20269;-65
2023/12/09 02:24:36;;;;;;;;;;;;;;;11.04;94.65;99968.06;7318413;19;21043;-64
2023/12/09 02:27:13;;;;;;;;;;;;;;;11.04;95.17;99958.38;7323573;19;20337;-65
2023/12/09 02:29:50;;;;;;;;;;;;;;;11.07;94.61;99959.84;7319791;19;19915;-66
2023/12/09 02:32:19;;;;;;;;;;;;;;;11.11;94.57;99953.22;7321328;19;19922;-65
2023/12/09 02:34:47;;;;;;;;;;;;;;;11.15;94.99;99943.97;7328326;19;19918;-64
2023/12/09 02:37:15;;;;;;;;;;;;;;;11.16;94.71;99940.34;7317568;19;19942;-66
2023/12/09 02:39:42;;;;;;;;;;;;;;;11.18;95.13;99935.69;7318744;19;19994;-65
2023/12/09 02:42:09;;;;;;;;;;;;;;;11.21;95.11;99922.19;7323491;19;19918;-65
2023/12/09 02:44:36;;;;;;;;;;;;;;;11.20;95.23;99917.09;7323979;19;20014;-66
2023/12/09 02:47:03;;;;;;;;;;;;;;;11.18;95.33;99913.81;7320528;19;19922;-65
2023/12/09 02:49:30;;;;;;;;;;;;;;;11.19;95.77;99918.91;7323361;19;19934;-65
2023/12/09 02:51:57;;;;;;;;;;;;;;;11.17;95.87;99926.19;7311036;19;19923;-64
2023/12/09 02:54:24;;;;;;;;;;;;;;;11.13;96.15;99909.91;7313025;19;19938;-65
2023/12/09 02:56:56;;;;;;;;;;;;;;;11.14;96.27;99903.66;7304423;19;20608;-64
2023/12/09 02:59:22;;;;;;;;;;;;;;;11.15;96.35;99915.00;7314203;19;20462;-65
2023/12/09 03:01:49;;;;;;;;;;;;;;;11.18;96.83;99905.91;7329994;19;19915;-66
2023/12/09 03:04:16;;;;;;;;;;;;;;;11.19;97.74;99895.22;7331125;19;19949;-65
2023/12/09 03:06:43;;;;;;;;;;;;;;;11.22;97.66;99891.41;7318762;19;19994;-67
2023/12/09 03:09:10;;;;;;;;;;;;;;;11.23;98.06;99882.50;7329444;19;19925;-65
2023/12/09 03:11:37;;;;;;;;;;;;;;;11.22;98.29;99863.28;7313429;19;19994;-64
2023/12/09 03:14:03;;;;;;;;;;;;;;;11.24;98.07;99865.69;7314694;19;19925;-65
2023/12/09 03:16:30;;;;;;;;;;;;;;;11.24;98.68;99866.53;7315938;19;19925;-66
2023/12/09 03:18:57;;;;;;;;;;;;;;;11.24;98.90;99858.63;7321545;19;19923;-69
2023/12/09 03:21:24;;;;;;;;;;;;;;;11.27;99.21;99860.91;7320526;19;19931;-65
2023/12/09 03:23:51;;;;;;;;;;;;;;;11.28;99.51;99856.44;7319440;19;19936;-64
2023/12/09 03:26:19;;;;;;;;;;;;;;;11.30;99.67;99844.75;7315783;19;20391;-65
2023/12/09 03:28:46;;;;;;;;;;;;;;;11.33;100.00;99833.81;7321517;19;19914;-64
2023/12/09 03:31:13;;;;;;;;;;;;;;;11.37;100.00;99842.19;7303284;19;20908;-65
2023/12/09 03:33:40;;;;;;;;;;;;;;;11.39;100.00;99853.34;7325358;19;19949;-65
2023/12/09 03:36:08;;;;;;;;;;;;;;;11.37;100.00;99843.03;7328384;19;20026;-65
2023/12/09 03:38:35;;;;;;;;;;;;;;;11.39;100.00;99843.63;7318205;19;21109;-66
2023/12/09 03:41:02;;;;;;;;;;;;;;;11.37;100.00;99844.84;7319646;19;19924;-66
2023/12/09 03:43:29;;;;;;;;;;;;;;;11.41;100.00;99839.03;7321730;19;20563;-66
2023/12/09 03:45:56;;;;;;;;;;;;;;;11.40;100.00;99829.47;7336789;19;20411;-65
2023/12/09 03:48:23;;;;;;;;;;;;;;;11.47;100.00;99816.41;7338536;19;19939;-65
2023/12/09 03:50:50;;;;;;;;;;;;;;;11.44;100.00;99817.56;7336652;19;19911;-65
2023/12/09 03:53:17;;;;;;;;;;;;;;;11.50;100.00;99823.94;7324283;19;19926;-65
2023/12/09 03:55:44;;;;;;;;;;;;;;;11.52;100.00;99809.59;7319979;19;19926;-65
2023/12/09 03:58:11;;;;;;;;;;;;;;;11.53;100.00;99813.00;7303424;19;19930;-66
2023/12/09 04:00:39;;;;;;;;;;;;;;;11.50;100.00;99816.03;7309967;19;20012;-64
2023/12/09 04:03:06;;;;;;;;;;;;;;;11.49;100.00;99788.03;7310040;19;19918;-64
2023/12/09 04:05:33;;;;;;;;;;;;;;;11.47;100.00;99792.69;7322346;19;19922;-64
2023/12/09 04:08:00;;;;;;;;;;;;;;;11.48;100.00;99781.94;7327276;19;19926;-64
2023/12/09 04:10:27;;;;;;;;;;;;;;;11.43;100.00;99783.50;7331208;19;20521;-64
2023/12/09 04:12:54;;;;;;;;;;;;;;;11.41;100.00;99783.72;7333130;19;19911;-65
2023/12/09 04:15:21;;;;;;;;;;;;;;;11.45;100.00;99787.59;7334120;19;20541;-65
2023/12/09 04:17:47;;;;;;;;;;;;;;;11.47;100.00;99787.44;7334099;19;19922;-64
2023/12/09 04:20:14;;;;;;;;;;;;;;;11.42;100.00;99774.00;7337438;19;20005;-64
2023/12/09 04:22:42;;;;;;;;;;;;;;;11.38;100.00;99751.63;7336129;19;20341;-65
2023/12/09 04:25:09;;;;;;;;;;;;;;;11.38;100.00;99738.47;7334142;19;19918;-65
2023/12/09 04:27:36;;;;;;;;;;;;;;;11.37;100.00;99728.97;7316164;19;19938;-65
2023/12/09 04:30:05;;;;;;;;;;;;;;;11.36;100.00;99712.34;7318322;19;20379;-65
2023/12/09 04:32:33;;;;;;;;;;;;;;;11.37;100.00;99708.72;7319063;19;19923;-65
2023/12/09 04:35:00;;;;;;;;;;;;;;;11.39;100.00;99708.50;7315178;19;20612;-65
2023/12/09 04:37:26;;;;;;;;;;;;;;;11.40;100.00;99720.66;7312560;19;19922;-65
2023/12/09 04:39:53;;;;;;;;;;;;;;;11.33;100.00;99710.06;7318594;19;19931;-64
2023/12/09 04:42:20;;;;;;;;;;;;;;;11.31;100.00;99693.66;7315135;19;19918;-66
2023/12/09 04:44:47;;;;;;;;;;;;;;;11.28;100.00;99696.63;7315215;19;20231;-65
2023/12/09 04:47:14;;;;;;;;;;;;;;;11.29;100.00;99685.09;7322019;19;19927;-64
2023/12/09 04:49:41;;;;;;;;;;;;;;;11.33;100.00;99672.38;7305645;19;20677;-66
2023/12/09 04:52:08;;;;;;;;;;;;;;;11.32;100.00;99671.59;7306047;19;22464;-65
2023/12/09 04:54:34;;;;;;;;;;;;;;;11.34;100.00;99679.28;7321994;19;19918;-65
2023/12/09 04:57:01;;;;;;;;;;;;;;;11.34;100.00;99677.47;7320679;19;20254;-65
2023/12/09 04:59:28;;;;;;;;;;;;;;;11.34;100.00;99655.56;7320628;19;20588;-64
2023/12/09 05:01:55;;;;;;;;;;;;;;;11.34;100.00;99648.50;7300741;19;20190;-65
2023/12/09 05:04:22;;;;;;;;;;;;;;;11.34;100.00;99634.50;7298999;19;19978;-64
2023/12/09 05:06:49;;;;;;;;;;;;;;;11.30;100.00;99623.53;7300100;19;20189;-65
2023/12/09 05:09:16;;;;;;;;;;;;;;;11.35;100.00;99621.16;7317385;19;21483;-65
2023/12/09 05:11:43;;;;;;;;;;;;;;;11.34;100.00;99619.53;7314681;19;20561;-65
2023/12/09 05:14:10;;;;;;;;;;;;;;;11.30;100.00;99599.84;7315088;19;19927;-66
2023/12/09 05:16:36;;;;;;;;;;;;;;;11.30;100.00;99599.84;7330816;19;20808;-65
2023/12/09 05:19:05;;;;;;;;;;;;;;;11.32;100.00;99591.75;7311684;19;21800;-64
2023/12/09 05:21:32;;;;;;;;;;;;;;;11.34;100.00;99597.63;7294605;19;19915;-65
2023/12/09 05:24:02;;;;;;;;;;;;;;;11.32;100.00;99583.88;7318410;19;20054;-64
2023/12/09 05:26:30;;;;;;;;;;;;;;;11.29;100.00;99569.25;7322394;19;19931;-65
2023/12/09 05:28:56;;;;;;;;;;;;;;;11.27;100.00;99555.47;7325628;19;21764;-65
2023/12/09 05:31:23;;;;;;;;;;;;;;;11.24;100.00;99545.28;7322881;19;19953;-65
2023/12/09 05:33:51;;;;;;;;;;;;;;;11.20;100.00;99537.97;7326458;19;20438;-65
2023/12/09 05:36:20;;;;;;;;;;;;;;;11.21;100.00;99537.78;7320354;19;19979;-65
2023/12/09 05:38:51;;;;;;;;;;;;;;;11.19;100.00;99521.34;7327251;19;19926;-65
2023/12/09 05:41:18;;;;;;;;;;;;;;;11.23;100.00;99519.16;7299664;19;19953;-66
2023/12/09 05:43:45;;;;;;;;;;;;;;;11.23;100.00;99514.69;7319089;19;19926;-64
2023/12/09 05:46:19;;;;;;;;;;;;;;;11.19;100.00;99502.94;7321745;19;19914;-65
2023/12/09 05:48:46;;;;;;;;;;;;;;;11.19;100.00;99502.94;7322586;19;19919;-66
2023/12/09 05:51:13;;;;;;;;;;;;;;;11.22;100.00;99493.84;7335129;19;20340;-65
2023/12/09 05:53:41;;;;;;;;;;;;;;;11.21;100.00;99477.22;7324752;19;19919;-64
2023/12/09 05:56:09;;;;;;;;;;;;;;;11.19;100.00;99473.16;7307809;19;20225;-64
2023/12/09 05:58:39;;;;;;;;;;;;;;;11.17;100.00;99483.88;7322878;19;20171;-65
2023/12/09 06:01:06;;;;;;;;;;;;;;;11.15;100.00;99454.28;7325431;19;20357;-65
2023/12/09 06:03:33;;;;;;;;;;;;;;;11.11;100.00;99450.41;7315793;19;19923;-65
2023/12/09 06:06:00;;;;;;;;;;;;;;;11.13;100.00;99429.97;7316908;19;19962;-66
2023/12/09 06:08:27;;;;;;;;;;;;;;;11.11;100.00;99427.53;7312417;19;20565;-65
2023/12/09 06:10:54;;;;;;;;;;;;;;;11.13;100.00;99427.34;7329468;19;20390;-65
2023/12/09 06:13:21;;;;;;;;;;;;;;;11.14;100.00;99418.44;7318713;19;19923;-65
2023/12/09 06:15:48;;;;;;;;;;;;;;;11.13;100.00;99411.53;7317599;19;20647;-65
2023/12/09 06:18:17;;;;;;;;;;;;;;;11.10;100.00;99404.03;7311758;19;20651;-64
2023/12/09 06:20:44;;;;;;;;;;;;;;;11.15;100.00;99388.47;7317123;19;19938;-65
2023/12/09 06:23:11;;;;;;;;;;;;;;;11.17;100.00;99381.22;7315238;19;20510;-64
2023/12/09 06:25:38;;;;;;;;;;;;;;;11.16;100.00;99361.16;7330160;19;19922;-65
2023/12/09 06:28:05;;;;;;;;;;;;;;;11.11;100.00;99343.31;7322969;19;19932;-65
2023/12/09 06:30:33;;;;;;;;;;;;;;;11.14;100.00;99339.47;7305159;19;20548;-64
2023/12/09 06:33:00;;;;;;;;;;;;;;;11.13;100.00;99329.94;7309046;19;19926;-65
2023/12/09 06:35:27;;;;;;;;;;;;;;;11.18;100.00;99318.81;7315829;19;19922;-65
2023/12/09 06:37:54;;;;;;;;;;;;;;;11.16;100.00;99313.78;7325456;19;20238;-65
2023/12/09 06:40:24;;;;;;;;;;;;;;;11.20;100.00;99311.56;7317591;19;19922;-65
2023/12/09 06:42:51;;;;;;;;;;;;;;;11.18;100.00;99303.03;7327392;19;20143;-64
2023/12/09 06:45:18;;;;;;;;;;;;;;;11.13;100.00;99282.56;7319673;19;19918;-65
2023/12/09 06:47:45;;;;;;;;;;;;;;;11.15;100.00;99273.47;7322019;19;19922;-65
2023/12/09 06:50:12;;;;;;;;;;;;;;;11.17;100.00;99269.84;7327076;19;20255;-65
2023/12/09 06:52:39;;;;;;;;;;;;;;;11.16;100.00;99271.66;7318365;19;19981;-65
2023/12/09 06:55:06;;;;;;;;;;;;;;;11.15;100.00;99270.03;7324913;19;19932;-64
2023/12/09 06:57:34;;;;;;;;;;;;;;;11.18;100.00;99255.66;7325405;19;20251;-65
2023/12/09 07:00:05;;;;;;;;;;;;;;;11.18;100.00;99253.00;7316858;19;19923;-65
2023/12/09 07:02:32;;;;;;;;;;;;;;;11.20;100.00;99248.38;7309908;19;20411;-65
2023/12/09 07:05:18;;;;;;;;;;;;;;;11.20;100.00;99237.84;7304764;19;20268;-64
2023/12/09 07:07:44;;;;;;;;;;;;;;;11.22;100.00;99241.94;7323926;19;19926;-65
2023/12/09 07:10:11;;;;;;;;;;;;;;;11.18;100.00;99232.78;7319314;19;19937;-65
2023/12/09 07:12:38;;;;;;;;;;;;;;;11.18;100.00;99216.97;7320903;19;19974;-65
2023/12/09 07:15:05;;;;;;;;;;;;;;;11.21;100.00;99208.69;7307596;19;19922;-66
2023/12/09 07:17:33;;;;;;;;;;;;;;;11.21;100.00;99206.06;7333605;19;19965;-65
2023/12/09 07:19:59;;;;;;;;;;;;;;;11.24;100.00;99195.13;7326031;19;19986;-65
2023/12/09 07:22:26;;;;;;;;;;;;;;;11.23;100.00;99175.06;7307666;19;19926;-64
2023/12/09 07:24:53;;;;;;;;;;;;;;;11.24;100.00;99178.53;7323415;19;20007;-64
2023/12/09 07:27:20;;;;;;;;;;;;;;;11.27;100.00;99172.88;7325081;19;22335;-65
2023/12/09 07:29:47;;;;;;;;;;;;;;;11.31;100.00;99153.03;7318104;19;19922;-64
2023/12/09 07:32:14;;;;;;;;;;;;;;;11.31;100.00;99137.22;7322317;19;20114;-65
2023/12/09 07:34:41;;;;;;;;;;;;;;;11.32;100.00;99131.78;7307666;19;19918;-65
2023/12/09 07:37:11;;;;;;;;;;;;;;;11.34;100.00;99121.03;7324395;19;20251;-65
2023/12/09 07:39:38;;;;;;;;;;;;;;;11.37;100.00;99128.53;7323116;19;19929;-65
2023/12/09 07:42:05;;;;;;;;;;;;;;;11.39;100.00;99139.66;7310209;19;19933;-66
2023/12/09 07:44:32;;;;;;;;;;;;;;;11.43;100.00;99130.34;7303834;19;19919;-65
2023/12/09 07:46:59;;;;;;;;;;;;;;;11.41;100.00;99124.50;7314422;19;19918;-65
2023/12/09 07:49:25;;;;;;;;;;;;;;;11.37;100.00;99132.00;7309624;19;19919;-65
2023/12/09 07:51:52;;;;;;;;;;;;;;;11.36;100.00;99111.13;7320389;19;19923;-65
2023/12/09 07:54:19;;;;;;;;;;;;;;;11.41;100.00;99095.53;7317471;19;19943;-66
2023/12/09 07:56:46;;;;;;;;;;;;;;;11.46;100.00;99099.19;7315701;19;19915;-64
2023/12/09 07:59:13;;;;;;;;;;;;;;;11.46;100.00;99090.47;7320698;19;20027;-65
2023/12/09 08:01:40;;;;;;;;;;;;;;;11.49;100.00;99063.72;7336569;19;19950;-65
2023/12/09 08:04:07;;;;;;;;;;;;;;;11.51;100.00;99066.97;7321029;19;19914;-65
2023/12/09 08:06:34;;;;;;;;;;;;;;;11.50;100.00;99042.44;7319547;19;21453;-65
2023/12/09 08:09:01;;;;;;;;;;;;;;;11.47;100.00;99034.97;7320795;19;20309;-64
2023/12/09 08:11:28;;;;;;;;;;;;;;;11.48;100.00;99044.47;7311671;19;19921;-64
2023/12/09 08:13:55;;;;;;;;;;;;;;;11.49;100.00;99027.66;7319133;19;19914;-65
2023/12/09 08:16:21;;;;;;;;;;;;;;;11.47;100.00;99028.88;7317559;19;19926;-64
2023/12/09 08:18:48;;;;;;;;;;;;;;;11.44;100.00;99016.09;7322804;19;19932;-66
2023/12/09 08:21:15;;;;;;;;;;;;;;;11.48;100.00;99009.41;7310166;19;20540;-65
2023/12/09 08:23:42;;;;;;;;;;;;;;;11.46;100.00;98993.84;7322877;19;19919;-64
2023/12/09 08:26:14;;;;;;;;;;;;;;;11.47;100.00;98995.47;7320378;19;20811;-64
2023/12/09 08:28:41;;;;;;;;;;;;;;;11.48;100.00;98991.78;7310681;19;20003;-64
2023/12/09 08:31:08;;;;;;;;;;;;;;;11.47;100.00;98965.69;7324294;19;19922;-63
2023/12/09 08:33:35;;;;;;;;;;;;;;;11.48;100.00;98952.28;7317098;19;19929;-63
2023/12/09 08:36:02;;;;;;;;;;;;;;;11.47;100.00;98936.72;7307444;19;20371;-65
2023/12/09 08:38:29;;;;;;;;;;;;;;;11.47;100.00;98920.91;7309212;19;19925;-64
2023/12/09 08:40:56;;;;;;;;;;;;;;;11.49;100.00;98922.31;7318582;19;19922;-65
2023/12/09 08:43:23;;;;;;;;;;;;;;;11.53;100.00;98905.06;7319752;19;19926;-66
2023/12/09 08:45:50;;;;;;;;;;;;;;;11.54;100.00;98890.91;7320316;19;20154;-67
2023/12/09 08:48:17;;;;;;;;;;;;;;;11.55;100.00;98879.34;7315337;19;19959;-64
2023/12/09 08:50:44;;;;;;;;;;;;;;;11.54;100.00;98875.09;7323395;19;20747;-64
2023/12/09 08:53:12;;;;;;;;;;;;;;;11.59;100.00;98882.38;7313613;19;19910;-64
2023/12/09 08:55:39;;;;;;;;;;;;;;;11.67;100.00;98895.34;7332858;19;19915;-64
2023/12/09 08:58:05;;;;;;;;;;;;;;;11.70;100.00;98907.25;7325129;19;19927;-64
2023/12/09 09:00:32;;;;;;;;;;;;;;;11.69;100.00;98913.53;7316864;19;19918;-65
2023/12/09 09:02:59;;;;;;;;;;;;;;;11.68;100.00;98891.69;7322129;19;20259;-64
2023/12/09 09:05:26;;;;;;;;;;;;;;;11.69;100.00;98869.56;7307942;19;20455;-64
2023/12/09 09:07:53;;;;;;;;;;;;;;;11.72;100.00;98858.63;7316680;19;20568;-66
2023/12/09 09:10:20;;;;;;;;;;;;;;;11.76;100.00;98856.41;7314441;19;19929;-65
2023/12/09 09:12:47;;;;;;;;;;;;;;;11.76;100.00;98849.31;7321135;19;19926;-65
2023/12/09 09:15:15;;;;;;;;;;;;;;;11.75;100.00;98838.97;7319986;19;19922;-64
2023/12/09 09:17:42;;;;;;;;;;;;;;;11.74;100.00;98829.44;7323011;19;19915;-64
2023/12/09 09:20:10;;;;;;;;;;;;;;;11.72;100.00;98829.66;7312850;19;19914;-66
2023/12/09 09:22:37;;;;;;;;;;;;;;;11.79;100.00;98833.06;7317117;19;21115;-66
2023/12/09 09:25:04;;;;;;;;;;;;;;;11.81;100.00;98825.78;7316818;19;19986;-66
2023/12/09 09:27:31;;;;;;;;;;;;;;;11.84;100.00;98812.19;7320492;19;19923;-64
2023/12/09 09:29:58;;;;;;;;;;;;;;;11.83;100.00;98796.59;7314831;19;19979;-65
2023/12/09 09:32:26;;;;;;;;;;;;;;;11.86;100.00;98793.53;7311229;19;19922;-65
2023/12/09 09:34:53;;;;;;;;;;;;;;;11.85;100.00;98776.09;7298438;19;19914;-65
2023/12/09 09:37:20;;;;;;;;;;;;;;;11.85;100.00;98771.63;7308365;19;19930;-65
2023/12/09 09:39:48;;;;;;;;;;;;;;;11.87;100.00;98761.72;7310052;19;20016;-66
2023/12/09 09:42:15;;;;;;;;;;;;;;;11.84;100.00;98748.94;7315347;19;19915;-65
2023/12/09 09:44:49;;;;;;;;;;;;;;;11.82;100.00;98744.91;7322174;19;19911;-64
2023/12/09 09:47:18;;;;;;;;;;;;;;;11.88;100.00;98734.34;7325262;19;19925;-64
2023/12/09 09:49:45;;;;;;;;;;;;;;;11.89;100.00;98722.75;7325460;19;19990;-65
2023/12/09 09:52:14;;;;;;;;;;;;;;;11.93;100.00;98715.25;7319256;19;20151;-65
2023/12/09 09:54:42;;;;;;;;;;;;;;;11.90;100.00;98703.28;7314663;19;19931;-64
2023/12/09 09:57:10;;;;;;;;;;;;;;;11.89;100.00;98709.56;7309009;19;19927;-65
2023/12/09 09:59:38;;;;;;;;;;;;;;;11.92;100.00;98716.25;7315118;19;19919;-64
2023/12/09 10:02:06;;;;;;;;;;;;;;;11.95;100.00;98711.38;7318648;19;19933;-65
2023/12/09 10:04:33;;;;;;;;;;;;;;;11.96;100.00;98706.91;7317892;19;20279;-65
2023/12/09 10:07:01;;;;;;;;;;;;;;;11.98;100.00;98696.97;7317918;19;19933;-65
2023/12/09 10:09:28;;;;;;;;;;;;;;;11.98;100.00;98692.50;7322747;19;21888;-65
2023/12/09 10:11:55;;;;;;;;;;;;;;;12.01;100.00;98696.53;7315483;19;19945;-65
2023/12/09 10:14:23;;;;;;;;;;;;;;;12.05;100.00;98700.34;7323294;19;19926;-64
2023/12/09 10:16:50;;;;;;;;;;;;;;;12.06;100.00;98688.78;7326726;19;19964;-65
2023/12/09 10:19:19;;;;;;;;;;;;;;;12.09;100.00;98677.00;7317761;19;20308;-66
2023/12/09 10:21:46;;;;;;;;;;;;;;;12.10;100.00;98674.13;7325673;19;19918;-64
2023/12/09 10:24:13;;;;;;;;;;;;;;;12.14;100.00;98680.59;7331246;19;22654;-65
2023/12/09 10:26:40;;;;;;;;;;;;;;;12.17;100.00;98666.19;7316802;19;19910;-65
2023/12/09 10:29:07;;;;;;;;;;;;;;;12.22;100.00;98655.78;7333971;19;19952;-64
2023/12/09 10:31:35;;;;;;;;;;;;;;;12.26;100.00;98644.59;7318323;19;20198;-65
2023/12/09 10:34:03;;;;;;;;;;;;;;;12.31;100.00;98631.56;7321418;19;19926;-64
2023/12/09 10:36:33;;;;;;;;;;;;;;;12.40;100.00;98645.25;7324198;19;19918;-65
2023/12/09 10:39:00;;;;;;;;;;;;;;;12.47;100.00;98637.28;7320965;19;19927;-65
2023/12/09 10:41:28;;;;;;;;;;;;;;;12.55;100.00;98626.44;7327851;19;19940;-70
2023/12/09 10:43:56;;;;;;;;;;;;;;;12.58;100.00;98613.63;7325362;19;19923;-65
2023/12/09 10:46:23;;;;;;;;;;;;;;;12.66;100.00;98607.22;7330908;19;19940;-66
2023/12/09 10:48:51;;;;;;;;;;;;;;;12.71;100.00;98615.28;7327224;19;20300;-64
2023/12/09 10:51:18;;;;;;;;;;;;;;;12.76;100.00;98620.72;7321911;19;19919;-65
2023/12/09 10:53:45;;;;;;;;;;;;;;;12.78;100.00;98613.38;7316133;19;19929;-64
2023/12/09 10:56:23;;;;;;;;;;;;;;;12.84;100.00;98608.03;7320540;19;19989;-65
2023/12/09 10:58:51;;;;;;;;;;;;;;;12.90;100.00;98595.75;7325435;19;20271;-66
2023/12/09 11:01:19;;;;;;;;;;;;;;;12.95;100.00;98587.19;7328772;19;20269;-64
2023/12/09 11:03:46;;;;;;;;;;;;;;;12.96;100.00;98586.13;7319356;19;19926;-65
2023/12/09 11:06:19;;;;;;;;;;;;;;;12.98;100.00;98582.25;7321119;19;19922;-64
2023/12/09 11:08:48;;;;;;;;;;;;;;;13.05;100.00;98584.81;7318942;19;19923;-65
2023/12/09 11:11:18;;;;;;;;;;;;;;;13.06;100.00;98592.50;7319373;19;20415;-65
2023/12/09 11:13:47;;;;;;;;;;;;;;;13.13;100.00;98580.06;7328051;19;20195;-64
2023/12/09 11:16:21;;;;;;;;;;;;;;;13.21;100.00;98584.19;7315764;19;19934;-63
2023/12/09 11:18:57;;;;;;;;;;;;;;;13.22;100.00;98573.41;7322854;19;21279;-66
2023/12/09 11:21:28;;;;;;;;;;;;;;;13.24;100.00;98575.84;7319485;19;19922;-66
2023/12/09 11:23:57;;;;;;;;;;;;;;;13.25;100.00;98572.97;7316058;19;19918;-64
2023/12/09 11:26:30;;;;;;;;;;;;;;;13.32;100.00;98569.41;7316754;19;19933;-64
2023/12/09 11:28:58;;;;;;;;;;;;;;;13.34;100.00;98559.44;7332820;19;19915;-65
2023/12/09 11:31:38;;;;;;;;;;;;;;;13.38;100.00;98552.66;7328722;19;19923;-64
2023/12/09 11:34:09;;;;;;;;;;;;;;;13.44;100.00;98557.03;7332582;19;19922;-65
2023/12/09 11:36:38;;;;;;;;;;;;;;;13.47;100.00;98553.94;7324218;19;19982;-65
2023/12/09 11:39:06;;;;;;;;;;;;;;;13.52;100.00;98546.13;7326889;19;20861;-68
2023/12/09 11:41:33;;;;;;;;;;;;;;;13.56;100.00;98545.44;7320292;19;20294;-65
2023/12/09 11:44:03;;;;;;;;;;;;;;;13.59;100.00;98534.44;7322951;19;19922;-65
2023/12/09 11:46:31;;;;;;;;;;;;;;;13.65;100.00;98538.81;7314492;19;20358;-64
2023/12/09 11:49:05;;;;;;;;;;;;;;;13.71;100.00;98534.44;7313526;19;19929;-64
2023/12/09 11:51:36;;;;;;;;;;;;;;;13.76;100.00;98531.13;7302868;19;19918;-65
2023/12/09 11:54:04;;;;;;;;;;;;;;;13.82;100.00;98536.25;7330529;19;19956;-65
2023/12/09 11:56:38;;;;;;;;;;;;;;;13.90;100.00;98532.47;7328279;19;19933;-65
2023/12/09 11:59:09;;;;;;;;;;;;;;;13.99;100.00;98528.44;7335140;19;19956;-65
2023/12/09 12:01:36;;;;;;;;;;;;;;;14.11;100.00;98522.13;7334794;19;20550;-64
2023/12/09 12:04:05;;;;;;;;;;;;;;;14.20;100.00;98519.09;7330037;19;19960;-66
2023/12/09 12:06:35;;;;;;;;;;;;;;;14.23;100.00;98518.63;7310461;19;19915;-65
2023/12/09 12:09:08;;;;;;;;;;;;;;;14.28;100.00;98514.25;7321649;19;21169;-64
2023/12/09 12:11:37;;;;;;;;;;;;;;;14.31;100.00;98515.63;7313692;19;19926;-66
2023/12/09 12:14:05;;;;;;;;;;;;;;;14.34;100.00;98512.50;7315246;19;21089;-65
2023/12/09 12:16:32;;;;;;;;;;;;;;;14.33;100.00;98505.59;7305307;19;19938;-64
2023/12/09 12:18:59;;;;;;;;;;;;;;;14.32;100.00;98515.41;7309549;19;19922;-65
2023/12/09 12:21:26;;;;;;;;;;;;;;;14.35;100.00;98517.56;7313737;19;19926;-65
2023/12/09 12:23:53;;;;;;;;;;;;;;;14.36;100.00;98518.38;7325267;19;19926;-65
2023/12/09 12:26:27;;;;;;;;;;;;;;;14.32;100.00;98510.13;7310518;19;20338;-65
2023/12/09 12:28:56;;;;;;;;;;;;;;;14.32;100.00;98519.88;7320087;19;20410;-67
2023/12/09 12:31:23;;;;;;;;;;;;;;;14.31;100.00;98523.56;7311288;19;22596;-66
2023/12/09 12:33:50;;;;;;;;;;;;;;;14.32;100.00;98530.47;7307524;19;20171;-66
2023/12/09 12:36:27;;;;;;;;;;;;;;;14.38;100.00;98527.69;7317472;19;19923;-66
2023/12/09 12:38:55;;;;;;;;;;;;;;;14.59;100.00;98539.50;7312915;19;19919;-66
2023/12/09 12:41:21;;;;;;;;;;;;;;;14.81;100.00;98542.28;7306721;19;19964;-66